sensor_id;sensor_type;location;lat;lon;timestamp;pressure;altitude;pressure_sealevel;temperature;humidity
8101;BME280;4093;53.470;9.832;2023-03-21T00:00:52;101462.50;;;10.93;95.13
8101;BME280;4093;53.470;9.832;2023-03-21T00:03:20;101458.94;;;11.08;93.79
8101;BME280;4093;53.470;9.832;2023-03-21T00:05:48;101434.19;;;10.73;94.94
8101;BME280;4093;53.470;9.832;2023-03-21T00:08:19;101458.41;;;10.58;96.27
8101;BME280;4093;53.470;9.832;2023-03-21T00:10:47;101454.09;;;10.60;96.53
8101;BME280;4093;53.470;9.832;2023-03-21T00:13:15;101459.25;;;10.59;97.64
8101;BME280;4093;53.470;9.832;2023-03-21T00:15:45;101464.44;;;10.56;97.81
8101;BME280;4093;53.470;9.832;2023-03-21T00:18:36;101456.66;;;10.63;98.24
8101;BME280;4093;53.470;9.832;2023-03-21T00:21:10;101448.09;;;10.54;97.07
8101;BME280;4093;53.470;9.832;2023-03-21T00:24:00;101452.47;;;10.42;98.46
8101;BME280;4093;53.470;9.832;2023-03-21T00:26:28;101424.66;;;10.77;95.80
8101;BME280;4093;53.470;9.832;2023-03-21T00:28:57;101421.16;;;10.84;95.20
8101;BME280;4093;53.470;9.832;2023-03-21T00:31:26;101412.72;;;10.60;97.56
8101;BME280;4093;53.470;9.832;2023-03-21T00:33:54;101442.06;;;10.52;97.74
8101;BME280;4093;53.470;9.832;2023-03-21T00:36:21;101412.81;;;10.45;97.33
8101;BME280;4093;53.470;9.832;2023-03-21T00:38:51;101441.84;;;10.85;96.50
8101;BME280;4093;53.470;9.832;2023-03-21T00:41:19;101440.13;;;10.87;96.52
8101;BME280;4093;53.470;9.832;2023-03-21T00:44:06;101442.44;;;11.23;94.70
8101;BME280;4093;53.470;9.832;2023-03-21T00:46:36;101429.56;;;11.12;94.76
8101;BME280;4093;53.470;9.832;2023-03-21T00:49:24;101418.41;;;11.05;94.36
8101;BME280;4093;53.470;9.832;2023-03-21T00:51:51;101434.13;;;10.81;95.90
8101;BME280;4093;53.470;9.832;2023-03-21T00:54:22;101427.84;;;11.11;94.35
8101;BME280;4093;53.470;9.832;2023-03-21T00:56:51;101424.41;;;11.09;95.39
8101;BME280;4093;53.470;9.832;2023-03-21T00:59:19;101430.41;;;11.14;93.95
8101;BME280;4093;53.470;9.832;2023-03-21T01:01:48;101423.56;;;11.10;94.49
8101;BME280;4093;53.470;9.832;2023-03-21T01:04:19;101426.13;;;11.11;95.42
8101;BME280;4093;53.470;9.832;2023-03-21T01:06:53;101420.84;;;11.24;94.56
8101;BME280;4093;53.470;9.832;2023-03-21T01:09:22;101415.75;;;11.15;93.84
8101;BME280;4093;53.470;9.832;2023-03-21T01:11:51;101422.50;;;11.28;94.26
8101;BME280;4093;53.470;9.832;2023-03-21T01:14:21;101415.56;;;11.33;94.12
8101;BME280;4093;53.470;9.832;2023-03-21T01:16:51;101408.66;;;11.35;94.06
8101;BME280;4093;53.470;9.832;2023-03-21T01:19:21;101414.56;;;11.48;93.51
8101;BME280;4093;53.470;9.832;2023-03-21T01:22:06;101398.53;;;11.09;93.42
8101;BME280;4093;53.470;9.832;2023-03-21T01:24:34;101406.06;;;11.33;93.48
8101;BME280;4093;53.470;9.832;2023-03-21T01:27:12;101412.25;;;11.19;94.33
8101;BME280;4093;53.470;9.832;2023-03-21T01:29:39;101399.03;;;11.46;93.16
8101;BME280;4093;53.470;9.832;2023-03-21T01:32:09;101400.38;;;10.98;94.52
8101;BME280;4093;53.470;9.832;2023-03-21T01:34:36;101385.66;;;11.00;93.66
8101;BME280;4093;53.470;9.832;2023-03-21T01:37:04;101414.69;;;11.34;93.48
8101;BME280;4093;53.470;9.832;2023-03-21T01:39:32;101410.44;;;11.28;95.50
8101;BME280;4093;53.470;9.832;2023-03-21T01:42:00;101379.63;;;10.99;94.58
8101;BME280;4093;53.470;9.832;2023-03-21T01:44:28;101389.09;;;11.05;94.26
8101;BME280;4093;53.470;9.832;2023-03-21T01:46:56;101396.81;;;11.08;94.60
8101;BME280;4093;53.470;9.832;2023-03-21T01:49:40;101393.31;;;11.14;94.73
8101;BME280;4093;53.470;9.832;2023-03-21T01:52:14;101398.41;;;11.21;95.19
8101;BME280;4093;53.470;9.832;2023-03-21T01:55:02;101390.00;;;11.01;95.56
8101;BME280;4093;53.470;9.832;2023-03-21T01:57:39;101392.56;;;11.02;95.71
8101;BME280;4093;53.470;9.832;2023-03-21T02:00:27;101376.16;;;11.06;94.59
8101;BME280;4093;53.470;9.832;2023-03-21T02:02:58;101396.97;;;10.89;96.75
8101;BME280;4093;53.470;9.832;2023-03-21T02:05:52;101389.09;;;11.06;95.02
8101;BME280;4093;53.470;9.832;2023-03-21T02:08:22;101390.66;;;11.21;94.35
8101;BME280;4093;53.470;9.832;2023-03-21T02:11:04;101383.63;;;11.34;94.04
8101;BME280;4093;53.470;9.832;2023-03-21T02:13:32;101379.75;;;10.88;97.08
8101;BME280;4093;53.470;9.832;2023-03-21T02:16:09;101388.13;;;11.17;95.04
8101;BME280;4093;53.470;9.832;2023-03-21T02:18:44;101372.34;;;11.40;93.58
8101;BME280;4093;53.470;9.832;2023-03-21T02:24:55;101377.41;;;11.52;94.19
8101;BME280;4093;53.470;9.832;2023-03-21T02:27:38;101363.09;;;11.17;95.03
8101;BME280;4093;53.470;9.832;2023-03-21T02:30:33;101363.75;;;11.38;94.96
8101;BME280;4093;53.470;9.832;2023-03-21T02:33:48;101368.59;;;11.65;93.28
8101;BME280;4093;53.470;9.832;2023-03-21T02:36:27;101357.63;;;11.43;94.82
8101;BME280;4093;53.470;9.832;2023-03-21T02:39:09;101322.63;;;11.10;93.94
8101;BME280;4093;53.470;9.832;2023-03-21T02:41:46;101354.47;;;11.17;94.89
8101;BME280;4093;53.470;9.832;2023-03-21T02:44:18;101366.25;;;11.45;93.28
8101;BME280;4093;53.470;9.832;2023-03-21T02:46:50;101362.22;;;11.20;96.34
8101;BME280;4093;53.470;9.832;2023-03-21T02:49:34;101356.91;;;11.30;94.65
8101;BME280;4093;53.470;9.832;2023-03-21T02:52:06;101365.66;;;11.19;95.40
8101;BME280;4093;53.470;9.832;2023-03-21T02:54:50;101354.50;;;11.12;96.02
8101;BME280;4093;53.470;9.832;2023-03-21T02:57:19;101356.88;;;11.33;95.54
8101;BME280;4093;53.470;9.832;2023-03-21T02:59:53;101358.16;;;10.94;96.96
8101;BME280;4093;53.470;9.832;2023-03-21T03:02:30;101351.41;;;10.72;97.74
8101;BME280;4093;53.470;9.832;2023-03-21T03:04:58;101357.16;;;11.06;97.76
8101;BME280;4093;53.470;9.832;2023-03-21T03:07:40;101352.72;;;11.19;96.38
8101;BME280;4093;53.470;9.832;2023-03-21T03:10:23;101351.53;;;11.49;94.84
8101;BME280;4093;53.470;9.832;2023-03-21T03:13:02;101339.97;;;10.99;97.74
8101;BME280;4093;53.470;9.832;2023-03-21T03:15:45;101348.09;;;11.47;95.38
8101;BME280;4093;53.470;9.832;2023-03-21T03:18:21;101313.66;;;11.42;93.90
8101;BME280;4093;53.470;9.832;2023-03-21T03:20:59;101340.28;;;11.51;93.88
8101;BME280;4093;53.470;9.832;2023-03-21T03:23:34;101341.38;;;11.30;96.22
8101;BME280;4093;53.470;9.832;2023-03-21T03:26:11;101336.44;;;11.07;97.06
8101;BME280;4093;53.470;9.832;2023-03-21T03:28:47;101328.94;;;10.81;98.03
8101;BME280;4093;53.470;9.832;2023-03-21T03:31:19;101310.13;;;10.61;98.11
8101;BME280;4093;53.470;9.832;2023-03-21T03:33:53;101343.25;;;11.19;98.18
8101;BME280;4093;53.470;9.832;2023-03-21T03:36:23;101336.97;;;11.37;95.19
8101;BME280;4093;53.470;9.832;2023-03-21T03:38:59;101315.16;;;10.79;97.65
8101;BME280;4093;53.470;9.832;2023-03-21T03:41:33;101340.66;;;11.19;97.05
8101;BME280;4093;53.470;9.832;2023-03-21T03:44:23;101350.16;;;11.17;96.87
8101;BME280;4093;53.470;9.832;2023-03-21T03:46:55;101346.56;;;11.32;95.66
8101;BME280;4093;53.470;9.832;2023-03-21T03:49:31;101334.84;;;10.93;97.85
8101;BME280;4093;53.470;9.832;2023-03-21T03:52:07;101329.84;;;10.74;99.35
8101;BME280;4093;53.470;9.832;2023-03-21T03:54:38;101338.28;;;10.98;98.21
8101;BME280;4093;53.470;9.832;2023-03-21T03:57:09;101334.75;;;11.05;97.99
8101;BME280;4093;53.470;9.832;2023-03-21T03:59:40;101335.66;;;11.01;98.12
8101;BME280;4093;53.470;9.832;2023-03-21T04:02:09;101339.72;;;11.23;96.67
8101;BME280;4093;53.470;9.832;2023-03-21T04:04:37;101341.56;;;11.12;98.14
8101;BME280;4093;53.470;9.832;2023-03-21T04:07:05;101338.88;;;11.23;97.30
8101;BME280;4093;53.470;9.832;2023-03-21T04:09:34;101301.84;;;11.16;96.59
8101;BME280;4093;53.470;9.832;2023-03-21T04:12:12;101334.34;;;11.42;96.40
8101;BME280;4093;53.470;9.832;2023-03-21T04:14:40;101330.91;;;11.40;95.87
8101;BME280;4093;53.470;9.832;2023-03-21T04:17:13;101294.16;;;11.08;96.88
8101;BME280;4093;53.470;9.832;2023-03-21T04:19:41;101336.97;;;11.39;96.68
8101;BME280;4093;53.470;9.832;2023-03-21T04:22:11;101327.38;;;11.47;95.53
8101;BME280;4093;53.470;9.832;2023-03-21T04:24:39;101332.50;;;11.50;94.88
8101;BME280;4093;53.470;9.832;2023-03-21T04:27:07;101309.84;;;10.93;97.60
8101;BME280;4093;53.470;9.832;2023-03-21T04:29:37;101329.16;;;11.45;97.35
8101;BME280;4093;53.470;9.832;2023-03-21T04:32:05;101324.06;;;11.35;96.42
8101;BME280;4093;53.470;9.832;2023-03-21T04:34:42;101307.81;;;11.23;96.80
8101;BME280;4093;53.470;9.832;2023-03-21T04:37:16;101315.94;;;10.87;99.77
8101;BME280;4093;53.470;9.832;2023-03-21T04:39:44;101322.66;;;11.07;98.72
8101;BME280;4093;53.470;9.832;2023-03-21T04:42:13;101320.13;;;11.01;98.45
8101;BME280;4093;53.470;9.832;2023-03-21T04:44:43;101322.16;;;11.51;95.98
8101;BME280;4093;53.470;9.832;2023-03-21T04:47:10;101313.56;;;11.46;95.78
8101;BME280;4093;53.470;9.832;2023-03-21T04:49:41;101306.75;;;11.41;96.94
8101;BME280;4093;53.470;9.832;2023-03-21T04:52:09;101322.97;;;11.55;95.56
8101;BME280;4093;53.470;9.832;2023-03-21T04:54:37;101319.72;;;11.41;96.65
8101;BME280;4093;53.470;9.832;2023-03-21T04:57:04;101298.34;;;11.20;97.23
8101;BME280;4093;53.470;9.832;2023-03-21T04:59:34;101317.28;;;11.25;98.05
8101;BME280;4093;53.470;9.832;2023-03-21T05:02:03;101321.44;;;11.39;97.06
8101;BME280;4093;53.470;9.832;2023-03-21T05:04:31;101317.72;;;11.61;94.89
8101;BME280;4093;53.470;9.832;2023-03-21T05:06:58;101319.47;;;11.59;96.39
8101;BME280;4093;53.470;9.832;2023-03-21T05:09:26;101321.47;;;11.34;97.18
8101;BME280;4093;53.470;9.832;2023-03-21T05:11:54;101324.66;;;10.79;100.00
8101;BME280;4093;53.470;9.832;2023-03-21T05:14:24;101301.03;;;11.13;98.31
8101;BME280;4093;53.470;9.832;2023-03-21T05:16:53;101274.91;;;11.32;96.70
8101;BME280;4093;53.470;9.832;2023-03-21T05:19:26;101316.72;;;11.71;95.86
8101;BME280;4093;53.470;9.832;2023-03-21T05:22:01;101307.56;;;11.44;96.76
8101;BME280;4093;53.470;9.832;2023-03-21T05:24:30;101258.66;;;11.18;96.99
8101;BME280;4093;53.470;9.832;2023-03-21T05:27:00;101310.06;;;11.52;96.11
8101;BME280;4093;53.470;9.832;2023-03-21T05:29:29;101313.03;;;11.20;98.42
8101;BME280;4093;53.470;9.832;2023-03-21T05:31:58;101302.75;;;11.12;98.75
8101;BME280;4093;53.470;9.832;2023-03-21T05:34:28;101309.19;;;10.71;100.00
8101;BME280;4093;53.470;9.832;2023-03-21T05:36:56;101311.28;;;11.20;99.32
8101;BME280;4093;53.470;9.832;2023-03-21T05:39:24;101290.69;;;11.11;99.07
8101;BME280;4093;53.470;9.832;2023-03-21T05:41:52;101252.03;;;10.96;97.97
8101;BME280;4093;53.470;9.832;2023-03-21T05:44:19;101310.97;;;11.46;98.14
8101;BME280;4093;53.470;9.832;2023-03-21T05:46:47;101310.09;;;11.49;98.26
8101;BME280;4093;53.470;9.832;2023-03-21T05:49:15;101295.66;;;11.28;99.44
8101;BME280;4093;53.470;9.832;2023-03-21T05:51:44;101298.22;;;11.31;97.96
8101;BME280;4093;53.470;9.832;2023-03-21T05:54:12;101271.94;;;10.91;99.31
8101;BME280;4093;53.470;9.832;2023-03-21T05:56:42;101301.47;;;11.47;98.48
8101;BME280;4093;53.470;9.832;2023-03-21T05:59:09;101295.63;;;11.31;99.10
8101;BME280;4093;53.470;9.832;2023-03-21T06:01:37;101288.09;;;11.13;99.95
8101;BME280;4093;53.470;9.832;2023-03-21T06:04:05;101293.28;;;11.11;100.00
8101;BME280;4093;53.470;9.832;2023-03-21T06:06:33;101291.19;;;10.60;100.00
8101;BME280;4093;53.470;9.832;2023-03-21T06:09:02;101283.13;;;10.89;100.00
8101;BME280;4093;53.470;9.832;2023-03-21T06:11:33;101289.19;;;10.87;100.00
8101;BME280;4093;53.470;9.832;2023-03-21T06:14:02;101287.63;;;10.71;100.00
8101;BME280;4093;53.470;9.832;2023-03-21T06:16:29;101290.09;;;10.84;100.00
8101;BME280;4093;53.470;9.832;2023-03-21T06:18:57;101295.84;;;11.13;100.00
8101;BME280;4093;53.470;9.832;2023-03-21T06:21:25;101288.88;;;11.18;100.00
8101;BME280;4093;53.470;9.832;2023-03-21T06:23:53;101288.75;;;11.31;100.00
8101;BME280;4093;53.470;9.832;2023-03-21T06:26:22;101292.66;;;11.63;99.10
8101;BME280;4093;53.470;9.832;2023-03-21T06:28:50;101291.66;;;11.72;98.31
8101;BME280;4093;53.470;9.832;2023-03-21T06:31:19;101265.09;;;11.56;99.82
8101;BME280;4093;53.470;9.832;2023-03-21T06:33:48;101290.78;;;11.74;98.70
8101;BME280;4093;53.470;9.832;2023-03-21T06:36:17;101277.75;;;11.11;100.00
8101;BME280;4093;53.470;9.832;2023-03-21T06:38:45;101281.41;;;10.92;100.00
8101;BME280;4093;53.470;9.832;2023-03-21T06:41:14;101287.31;;;11.03;100.00
8101;BME280;4093;53.470;9.832;2023-03-21T06:43:44;101290.16;;;11.57;100.00
8101;BME280;4093;53.470;9.832;2023-03-21T06:46:12;101285.00;;;11.52;100.00
8101;BME280;4093;53.470;9.832;2023-03-21T06:48:39;101276.13;;;11.01;100.00
8101;BME280;4093;53.470;9.832;2023-03-21T06:51:11;101296.72;;;11.13;100.00
8101;BME280;4093;53.470;9.832;2023-03-21T06:53:39;101299.69;;;11.52;100.00
8101;BME280;4093;53.470;9.832;2023-03-21T06:56:08;101294.09;;;11.84;98.77
8101;BME280;4093;53.470;9.832;2023-03-21T06:58:36;101275.38;;;11.62;98.96
8101;BME280;4093;53.470;9.832;2023-03-21T07:01:06;101287.84;;;11.32;100.00
8101;BME280;4093;53.470;9.832;2023-03-21T07:03:34;101274.31;;;11.10;100.00
8101;BME280;4093;53.470;9.832;2023-03-21T07:06:04;101300.31;;;11.72;100.00
8101;BME280;4093;53.470;9.832;2023-03-21T07:08:32;101297.88;;;11.58;100.00
8101;BME280;4093;53.470;9.832;2023-03-21T07:11:00;101295.81;;;11.87;99.49
8101;BME280;4093;53.470;9.832;2023-03-21T07:13:28;101297.06;;;11.55;100.00
8101;BME280;4093;53.470;9.832;2023-03-21T07:15:56;101295.19;;;11.68;100.00
8101;BME280;4093;53.470;9.832;2023-03-21T07:18:25;101299.13;;;11.98;98.92
8101;BME280;4093;53.470;9.832;2023-03-21T07:20:53;101290.66;;;11.84;99.40
8101;BME280;4093;53.470;9.832;2023-03-21T07:23:22;101292.75;;;11.57;99.75
8101;BME280;4093;53.470;9.832;2023-03-21T07:25:51;101299.44;;;11.73;99.87
8101;BME280;4093;53.470;9.832;2023-03-21T07:28:19;101295.66;;;11.99;99.56
8101;BME280;4093;53.470;9.832;2023-03-21T07:30:51;101305.00;;;12.09;96.66
8101;BME280;4093;53.470;9.832;2023-03-21T07:33:19;101270.22;;;11.62;98.95
8101;BME280;4093;53.470;9.832;2023-03-21T07:35:50;101290.66;;;11.84;99.46
8101;BME280;4093;53.470;9.832;2023-03-21T07:38:18;101290.56;;;11.93;98.41
8101;BME280;4093;53.470;9.832;2023-03-21T07:40:47;101294.47;;;11.55;100.00
8101;BME280;4093;53.470;9.832;2023-03-21T07:43:16;101240.69;;;11.75;97.46
8101;BME280;4093;53.470;9.832;2023-03-21T07:45:44;101296.75;;;11.79;99.16
8101;BME280;4093;53.470;9.832;2023-03-21T07:48:12;101269.63;;;11.40;100.00
8101;BME280;4093;53.470;9.832;2023-03-21T07:50:40;101286.47;;;11.02;100.00
8101;BME280;4093;53.470;9.832;2023-03-21T07:53:09;101285.78;;;11.61;100.00
8101;BME280;4093;53.470;9.832;2023-03-21T07:55:37;101285.66;;;11.68;100.00
8101;BME280;4093;53.470;9.832;2023-03-21T07:58:05;101288.47;;;11.53;100.00
8101;BME280;4093;53.470;9.832;2023-03-21T08:00:33;101295.00;;;11.85;99.95
8101;BME280;4093;53.470;9.832;2023-03-21T08:03:01;101290.44;;;12.02;99.74
8101;BME280;4093;53.470;9.832;2023-03-21T08:05:32;101294.22;;;12.37;96.81
8101;BME280;4093;53.470;9.832;2023-03-21T08:08:00;101273.44;;;11.79;98.15
8101;BME280;4093;53.470;9.832;2023-03-21T08:10:29;101291.75;;;12.27;97.61
8101;BME280;4093;53.470;9.832;2023-03-21T08:12:57;101285.91;;;12.15;98.00
8101;BME280;4093;53.470;9.832;2023-03-21T08:15:25;101287.47;;;12.25;98.42
8101;BME280;4093;53.470;9.832;2023-03-21T08:17:53;101281.22;;;11.79;99.05
8101;BME280;4093;53.470;9.832;2023-03-21T08:20:21;101278.56;;;11.86;100.00
8101;BME280;4093;53.470;9.832;2023-03-21T08:22:49;101291.75;;;12.27;98.97
8101;BME280;4093;53.470;9.832;2023-03-21T08:25:19;101286.09;;;12.02;98.60
8101;BME280;4093;53.470;9.832;2023-03-21T08:27:50;101281.00;;;11.28;100.00
8101;BME280;4093;53.470;9.832;2023-03-21T08:30:20;101281.13;;;11.84;100.00
8101;BME280;4093;53.470;9.832;2023-03-21T08:32:48;101284.72;;;11.75;99.77
8101;BME280;4093;53.470;9.832;2023-03-21T08:35:17;101286.34;;;11.81;100.00
8101;BME280;4093;53.470;9.832;2023-03-21T08:37:45;101290.06;;;12.26;98.55
8101;BME280;4093;53.470;9.832;2023-03-21T08:40:15;101234.47;;;11.89;99.52
8101;BME280;4093;53.470;9.832;2023-03-21T08:42:44;101270.16;;;12.29;98.23
8101;BME280;4093;53.470;9.832;2023-03-21T08:45:15;101283.66;;;11.92;100.00
8101;BME280;4093;53.470;9.832;2023-03-21T08:47:43;101289.78;;;12.45;98.21
8101;BME280;4093;53.470;9.832;2023-03-21T08:50:13;101278.59;;;11.82;100.00
8101;BME280;4093;53.470;9.832;2023-03-21T08:52:41;101272.59;;;11.79;100.00
8101;BME280;4093;53.470;9.832;2023-03-21T08:55:10;101281.38;;;12.82;97.21
8101;BME280;4093;53.470;9.832;2023-03-21T08:57:39;101274.84;;;12.05;99.61
8101;BME280;4093;53.470;9.832;2023-03-21T09:00:10;101282.50;;;12.13;98.89
8101;BME280;4093;53.470;9.832;2023-03-21T09:02:42;101286.28;;;12.46;98.56
8101;BME280;4093;53.470;9.832;2023-03-21T09:05:11;101285.88;;;12.70;96.63
8101;BME280;4093;53.470;9.832;2023-03-21T09:07:39;101291.31;;;12.55;97.58
8101;BME280;4093;53.470;9.832;2023-03-21T09:10:10;101276.94;;;12.36;96.81
8101;BME280;4093;53.470;9.832;2023-03-21T09:12:47;101272.72;;;12.32;98.32
8101;BME280;4093;53.470;9.832;2023-03-21T09:15:15;101282.47;;;12.67;97.94
8101;BME280;4093;53.470;9.832;2023-03-21T09:17:45;101272.97;;;12.66;97.12
8101;BME280;4093;53.470;9.832;2023-03-21T09:20:18;101271.66;;;12.42;98.16
8101;BME280;4093;53.470;9.832;2023-03-21T09:22:52;101280.31;;;12.92;97.26
8101;BME280;4093;53.470;9.832;2023-03-21T09:25:20;101269.88;;;12.45;99.28
8101;BME280;4093;53.470;9.832;2023-03-21T09:27:49;101278.44;;;12.50;98.82
8101;BME280;4093;53.470;9.832;2023-03-21T09:30:19;101284.59;;;12.45;100.00
8101;BME280;4093;53.470;9.832;2023-03-21T09:32:52;101241.59;;;12.30;99.00
8101;BME280;4093;53.470;9.832;2023-03-21T09:35:21;101280.56;;;12.77;97.84
8101;BME280;4093;53.470;9.832;2023-03-21T09:37:50;101283.28;;;13.17;96.21
8101;BME280;4093;53.470;9.832;2023-03-21T09:40:21;101264.09;;;12.79;97.65
8101;BME280;4093;53.470;9.832;2023-03-21T09:42:57;101270.34;;;12.15;100.00
8101;BME280;4093;53.470;9.832;2023-03-21T09:45:31;101282.28;;;12.79;100.00
8101;BME280;4093;53.470;9.832;2023-03-21T09:48:11;101285.44;;;12.95;99.79
8101;BME280;4093;53.470;9.832;2023-03-21T09:50:43;101283.41;;;13.09;98.39
8101;BME280;4093;53.470;9.832;2023-03-21T09:53:13;101279.56;;;13.32;97.14
8101;BME280;4093;53.470;9.832;2023-03-21T09:55:44;101274.03;;;13.47;95.14
8101;BME280;4093;53.470;9.832;2023-03-21T09:58:20;101271.94;;;13.21;95.83
8101;BME280;4093;53.470;9.832;2023-03-21T10:00:57;101270.94;;;13.30;95.92
8101;BME280;4093;53.470;9.832;2023-03-21T10:03:31;101242.66;;;13.14;95.62
8101;BME280;4093;53.470;9.832;2023-03-21T10:06:03;101266.47;;;13.36;95.33
8101;BME280;4093;53.470;9.832;2023-03-21T10:08:35;101266.84;;;13.60;95.18
8101;BME280;4093;53.470;9.832;2023-03-21T10:11:09;101266.50;;;13.77;94.29
8101;BME280;4093;53.470;9.832;2023-03-21T10:13:42;101237.13;;;13.31;95.14
8101;BME280;4093;53.470;9.832;2023-03-21T10:16:14;101265.09;;;13.99;93.32
8101;BME280;4093;53.470;9.832;2023-03-21T10:18:43;101255.44;;;13.67;94.82
8101;BME280;4093;53.470;9.832;2023-03-21T10:21:19;101260.31;;;13.82;94.03
8101;BME280;4093;53.470;9.832;2023-03-21T10:24:10;101248.56;;;13.64;93.98
8101;BME280;4093;53.470;9.832;2023-03-21T10:26:38;101254.47;;;13.32;97.32
8101;BME280;4093;53.470;9.832;2023-03-21T10:29:09;101243.44;;;13.19;96.99
8101;BME280;4093;53.470;9.832;2023-03-21T10:31:38;101237.72;;;13.44;96.18
8101;BME280;4093;53.470;9.832;2023-03-21T10:34:15;101247.41;;;13.78;95.37
8101;BME280;4093;53.470;9.832;2023-03-21T10:36:44;101240.19;;;13.52;96.07
8101;BME280;4093;53.470;9.832;2023-03-21T10:39:20;101232.66;;;13.39;95.51
8101;BME280;4093;53.470;9.832;2023-03-21T10:41:50;101246.00;;;12.76;98.57
8101;BME280;4093;53.470;9.832;2023-03-21T10:44:19;101214.56;;;12.90;97.81
8101;BME280;4093;53.470;9.832;2023-03-21T10:46:52;101236.81;;;13.47;94.96
8101;BME280;4093;53.470;9.832;2023-03-21T10:49:23;101241.06;;;13.07;97.75
8101;BME280;4093;53.470;9.832;2023-03-21T10:51:53;101173.13;;;12.87;96.19
8101;BME280;4093;53.470;9.832;2023-03-21T10:54:27;101236.41;;;13.25;95.97
8101;BME280;4093;53.470;9.832;2023-03-21T10:56:57;101233.84;;;13.23;96.01
8101;BME280;4093;53.470;9.832;2023-03-21T10:59:26;101197.25;;;12.45;99.49
8101;BME280;4093;53.470;9.832;2023-03-21T11:01:55;101230.97;;;13.37;97.06
8101;BME280;4093;53.470;9.832;2023-03-21T11:04:26;101231.81;;;13.39;96.38
8101;BME280;4093;53.470;9.832;2023-03-21T11:06:57;101228.59;;;13.67;95.44
8101;BME280;4093;53.470;9.832;2023-03-21T11:09:43;101231.03;;;13.74;95.46
8101;BME280;4093;53.470;9.832;2023-03-21T11:12:14;101233.84;;;14.02;94.18
8101;BME280;4093;53.470;9.832;2023-03-21T11:14:44;101216.94;;;13.44;96.09
8101;BME280;4093;53.470;9.832;2023-03-21T11:17:20;101212.28;;;13.18;97.08
8101;BME280;4093;53.470;9.832;2023-03-21T11:19:51;101207.38;;;13.48;96.56
8101;BME280;4093;53.470;9.832;2023-03-21T11:22:20;101211.13;;;13.73;95.53
8101;BME280;4093;53.470;9.832;2023-03-21T11:24:50;101205.72;;;13.81;94.24
8101;BME280;4093;53.470;9.832;2023-03-21T11:27:19;101204.06;;;12.96;97.71
8101;BME280;4093;53.470;9.832;2023-03-21T11:29:48;101210.66;;;13.12;97.98
8101;BME280;4093;53.470;9.832;2023-03-21T11:32:22;101205.63;;;13.48;97.39
8101;BME280;4093;53.470;9.832;2023-03-21T11:34:56;101195.56;;;13.33;97.00
8101;BME280;4093;53.470;9.832;2023-03-21T11:37:27;101199.00;;;13.33;97.72
8101;BME280;4093;53.470;9.832;2023-03-21T11:40:07;101203.19;;;13.40;97.61
8101;BME280;4093;53.470;9.832;2023-03-21T11:42:46;101202.97;;;13.51;96.49
8101;BME280;4093;53.470;9.832;2023-03-21T11:45:17;101210.97;;;14.15;95.34
8101;BME280;4093;53.470;9.832;2023-03-21T11:47:47;101192.50;;;13.54;95.99
8101;BME280;4093;53.470;9.832;2023-03-21T11:50:20;101195.66;;;13.67;96.02
8101;BME280;4093;53.470;9.832;2023-03-21T11:53:02;101184.03;;;13.82;96.25
8101;BME280;4093;53.470;9.832;2023-03-21T11:55:40;101182.97;;;13.53;97.66
8101;BME280;4093;53.470;9.832;2023-03-21T11:58:30;101187.25;;;13.93;95.90
8101;BME280;4093;53.470;9.832;2023-03-21T12:01:06;101186.03;;;14.41;94.24
8101;BME280;4093;53.470;9.832;2023-03-21T12:03:54;101176.81;;;14.29;93.88
8101;BME280;4093;53.470;9.832;2023-03-21T12:06:32;101174.09;;;14.01;94.73
8101;BME280;4093;53.470;9.832;2023-03-21T12:09:07;101167.44;;;13.87;94.97
8101;BME280;4093;53.470;9.832;2023-03-21T12:11:46;101168.69;;;14.41;93.50
8101;BME280;4093;53.470;9.832;2023-03-21T12:14:21;101126.44;;;13.64;96.32
8101;BME280;4093;53.470;9.832;2023-03-21T12:17:04;101160.13;;;13.68;96.44
8101;BME280;4093;53.470;9.832;2023-03-21T12:19:51;101158.47;;;13.65;95.45
8101;BME280;4093;53.470;9.832;2023-03-21T12:22:28;101157.66;;;13.23;98.69
8101;BME280;4093;53.470;9.832;2023-03-21T12:25:03;101154.38;;;13.13;98.32
8101;BME280;4093;53.470;9.832;2023-03-21T12:27:38;101125.84;;;12.71;98.12
8101;BME280;4093;53.470;9.832;2023-03-21T12:30:15;101148.41;;;13.51;96.43
8101;BME280;4093;53.470;9.832;2023-03-21T12:33:11;101142.81;;;14.02;93.93
8101;BME280;4093;53.470;9.832;2023-03-21T12:35:49;101156.38;;;14.15;93.54
8101;BME280;4093;53.470;9.832;2023-03-21T12:38:23;101130.88;;;13.95;93.96
8101;BME280;4093;53.470;9.832;2023-03-21T12:41:02;101121.16;;;13.68;95.44
8101;BME280;4093;53.470;9.832;2023-03-21T12:43:39;101135.13;;;13.63;95.72
8101;BME280;4093;53.470;9.832;2023-03-21T12:46:12;101152.16;;;14.11;93.71
8101;BME280;4093;53.470;9.832;2023-03-21T12:48:45;101140.09;;;14.07;92.94
8101;BME280;4093;53.470;9.832;2023-03-21T12:51:18;101135.31;;;13.90;94.36
8101;BME280;4093;53.470;9.832;2023-03-21T12:53:55;101117.84;;;14.29;92.60
8101;BME280;4093;53.470;9.832;2023-03-21T12:56:29;101079.38;;;13.75;93.65
8101;BME280;4093;53.470;9.832;2023-03-21T12:59:03;101125.69;;;13.94;94.84
8101;BME280;4093;53.470;9.832;2023-03-21T13:01:35;101116.88;;;13.65;95.20
8101;BME280;4093;53.470;9.832;2023-03-21T13:04:15;101118.44;;;14.06;94.68
8101;BME280;4093;53.470;9.832;2023-03-21T13:06:49;101120.25;;;14.04;95.05
8101;BME280;4093;53.470;9.832;2023-03-21T13:09:26;101117.94;;;14.26;93.64
8101;BME280;4093;53.470;9.832;2023-03-21T13:12:14;101115.00;;;14.06;94.37
8101;BME280;4093;53.470;9.832;2023-03-21T13:14:51;101099.75;;;13.58;96.41
8101;BME280;4093;53.470;9.832;2023-03-21T13:17:26;101107.59;;;13.91;95.38
8101;BME280;4093;53.470;9.832;2023-03-21T13:20:01;101104.88;;;13.59;96.18
8101;BME280;4093;53.470;9.832;2023-03-21T13:22:33;101051.88;;;13.31;95.82
8101;BME280;4093;53.470;9.832;2023-03-21T13:25:05;101096.50;;;13.84;95.49
8101;BME280;4093;53.470;9.832;2023-03-21T13:27:35;101090.81;;;14.02;94.87
8101;BME280;4093;53.470;9.832;2023-03-21T13:30:16;101056.38;;;13.60;95.18
8101;BME280;4093;53.470;9.832;2023-03-21T13:32:45;101093.25;;;14.08;95.43
8101;BME280;4093;53.470;9.832;2023-03-21T13:35:18;101067.13;;;14.13;93.66
8101;BME280;4093;53.470;9.832;2023-03-21T13:37:56;101091.06;;;14.58;92.27
8101;BME280;4093;53.470;9.832;2023-03-21T13:40:28;101088.50;;;14.87;90.94